createdAt,value
2022-08-10T00:00:54.461Z,0.00
2022-08-10T00:01:54.658Z,0.00
2022-08-10T00:02:54.386Z,0.00
2022-08-10T00:03:54.352Z,0.00
2022-08-10T00:04:54.331Z,0.00
2022-08-10T00:05:54.291Z,0.00
2022-08-10T00:06:54.285Z,0.00
2022-08-10T00:07:54.205Z,0.00
2022-08-10T00:08:54.170Z,0.00
2022-08-10T00:09:54.134Z,0.00
2022-08-10T00:10:54.097Z,0.00
2022-08-10T00:11:54.072Z,0.00
2022-08-10T00:12:55.238Z,0.00
2022-08-10T00:13:53.987Z,0.00
2022-08-10T00:14:53.955Z,0.00
2022-08-10T00:15:55.355Z,0.00
2022-08-10T00:16:53.885Z,0.00
2022-08-10T00:17:53.851Z,0.00
2022-08-10T00:18:53.808Z,0.00
2022-08-10T00:20:03.137Z,0.00
2022-08-10T00:20:53.736Z,0.00
2022-08-10T00:21:53.699Z,0.00
2022-08-10T00:22:57.802Z,0.00
2022-08-10T00:23:53.633Z,0.00
2022-08-10T00:24:53.620Z,0.00
2022-08-10T00:25:53.551Z,0.00
2022-08-10T00:27:58.542Z,0.00
2022-08-10T00:28:03.632Z,0.00
2022-08-10T00:28:53.457Z,0.00
2022-08-10T00:29:53.433Z,0.00
2022-08-10T00:30:53.396Z,0.00
2022-08-10T00:31:57.955Z,0.00
2022-08-10T00:32:53.299Z,0.00
2022-08-10T00:33:53.264Z,0.00
2022-08-10T00:34:53.239Z,0.00
2022-08-10T00:35:53.209Z,0.00
2022-08-10T00:36:53.161Z,0.00
2022-08-10T00:37:56.422Z,0.00
2022-08-10T00:38:53.084Z,0.00
2022-08-10T00:39:53.098Z,0.00
2022-08-10T00:40:53.021Z,0.00
2022-08-10T00:42:02.289Z,0.00
2022-08-10T00:42:52.938Z,0.00
2022-08-10T00:43:52.899Z,0.00
2022-08-10T00:44:52.864Z,0.00
2022-08-10T00:45:59.530Z,0.00
2022-08-10T00:46:52.803Z,0.00
2022-08-10T00:47:52.757Z,0.00
2022-08-10T00:49:00.739Z,0.00
2022-08-10T00:49:52.683Z,0.00
2022-08-10T00:50:52.646Z,0.00
2022-08-10T00:51:52.615Z,0.00
2022-08-10T00:52:52.576Z,0.00
2022-08-10T00:53:52.538Z,0.00
2022-08-10T00:54:52.508Z,0.00
2022-08-10T00:56:35.234Z,0.00
2022-08-10T00:57:18.029Z,0.00
2022-08-10T00:57:54.803Z,0.00
2022-08-10T00:58:52.354Z,0.00
2022-08-10T00:59:57.649Z,0.00
2022-08-10T01:00:52.291Z,0.00
2022-08-10T01:02:08.540Z,0.00
2022-08-10T01:02:52.406Z,0.00
2022-08-10T01:04:36.485Z,0.00
2022-08-10T01:05:00.341Z,0.00
2022-08-10T01:05:52.101Z,0.00
2022-08-10T01:06:52.077Z,0.00
2022-08-10T01:07:52.031Z,0.00
2022-08-10T01:08:51.988Z,0.00
2022-08-10T01:09:57.224Z,0.00
2022-08-10T01:10:51.922Z,0.00
2022-08-10T01:12:39.701Z,0.00
2022-08-10T01:12:52.284Z,0.00
2022-08-10T01:13:51.817Z,0.00
2022-08-10T01:14:51.774Z,0.00
2022-08-10T01:15:51.736Z,0.00
2022-08-10T01:16:51.698Z,0.00
2022-08-10T01:17:51.715Z,0.00
2022-08-10T01:18:51.624Z,0.00
2022-08-10T01:19:51.604Z,0.00
2022-08-10T01:20:51.554Z,0.00
2022-08-10T01:21:57.044Z,0.00
2022-08-10T01:22:51.479Z,0.00
2022-08-10T01:23:51.442Z,0.00
2022-08-10T01:24:51.420Z,0.00
2022-08-10T01:26:11.839Z,0.00
2022-08-10T01:26:51.336Z,0.00
2022-08-10T01:27:51.305Z,0.00
2022-08-10T01:28:51.264Z,0.00
2022-08-10T01:29:51.232Z,0.00
2022-08-10T01:30:51.215Z,0.00
2022-08-10T01:31:51.150Z,0.00
2022-08-10T01:32:51.115Z,0.00
2022-08-10T01:33:58.068Z,0.00
2022-08-10T01:34:51.047Z,0.00
2022-08-10T01:35:51.004Z,0.00
2022-08-10T01:36:50.982Z,0.00
2022-08-10T01:37:51.870Z,0.00
2022-08-10T01:38:50.892Z,0.00
2022-08-10T01:39:50.914Z,0.00
2022-08-10T01:40:50.827Z,0.00
2022-08-10T01:41:50.799Z,0.00
2022-08-10T01:42:50.748Z,0.00
2022-08-10T01:43:50.711Z,0.00
2022-08-10T01:44:50.675Z,0.00
2022-08-10T01:45:50.644Z,0.00
2022-08-10T01:46:53.028Z,0.00
2022-08-10T01:47:50.580Z,0.00
2022-08-10T01:48:50.529Z,0.00
2022-08-10T01:49:50.497Z,0.00
2022-08-10T01:50:58.908Z,0.00
2022-08-10T01:51:50.423Z,0.00
2022-08-10T01:52:50.407Z,0.00
2022-08-10T01:53:50.352Z,0.00
2022-08-10T01:54:50.308Z,0.00
2022-08-10T01:55:50.271Z,0.00
2022-08-10T01:56:50.236Z,0.00
2022-08-10T01:57:50.202Z,0.00
2022-08-10T01:58:50.171Z,0.00
2022-08-10T01:59:58.603Z,0.00
2022-08-10T02:00:50.153Z,0.00
2022-08-10T02:01:50.051Z,0.00
2022-08-10T02:02:50.013Z,0.00
2022-08-10T02:04:03.786Z,0.00
2022-08-10T02:04:49.958Z,0.00
2022-08-10T02:05:49.906Z,0.00
2022-08-10T02:06:49.870Z,0.00
2022-08-10T02:07:49.831Z,0.00
2022-08-10T02:08:49.794Z,0.00
2022-08-10T02:09:49.756Z,0.00
2022-08-10T02:10:49.730Z,0.00
2022-08-10T02:12:05.454Z,0.00
2022-08-10T02:12:49.647Z,0.00
2022-08-10T02:13:49.611Z,0.00
2022-08-10T02:14:49.579Z,0.00
2022-08-10T02:16:01.940Z,0.00
2022-08-10T02:16:49.507Z,0.00
2022-08-10T02:17:59.259Z,0.00
2022-08-10T02:18:49.425Z,0.00
2022-08-10T02:19:49.390Z,0.00
2022-08-10T02:20:49.361Z,0.00
2022-08-10T02:22:36.770Z,0.00
2022-08-10T02:22:49.491Z,0.00
2022-08-10T02:23:59.356Z,0.00
2022-08-10T02:24:49.206Z,0.00
2022-08-10T02:25:49.169Z,0.00
2022-08-10T02:26:49.130Z,0.00
2022-08-10T02:27:49.102Z,0.00
2022-08-10T02:28:49.082Z,0.00
2022-08-10T02:29:49.331Z,0.00
2022-08-10T02:30:48.985Z,0.00
2022-08-10T02:31:49.560Z,0.00
2022-08-10T02:32:52.945Z,0.00
2022-08-10T02:33:57.828Z,0.00
2022-08-10T02:34:48.852Z,0.00
2022-08-10T02:35:55.485Z,0.00
2022-08-10T02:36:48.766Z,0.00
2022-08-10T02:37:58.165Z,0.00
2022-08-10T02:38:58.326Z,0.00
2022-08-10T02:39:48.654Z,0.00
2022-08-10T02:42:17.991Z,0.00
2022-08-10T02:42:18.118Z,0.00
2022-08-10T02:45:19.854Z,0.00
2022-08-10T02:45:24.327Z,0.00
2022-08-10T02:45:27.428Z,0.00
2022-08-10T02:45:48.430Z,0.00
2022-08-10T02:46:48.418Z,0.00
2022-08-10T02:47:52.282Z,0.00
2022-08-10T02:48:48.320Z,0.00
2022-08-10T02:49:48.282Z,0.00
2022-08-10T02:50:48.243Z,0.00
2022-08-10T02:52:06.781Z,0.00
2022-08-10T02:52:48.179Z,0.00
2022-08-10T02:53:54.460Z,0.00
2022-08-10T02:54:48.095Z,0.00
2022-08-10T02:55:48.058Z,0.00
2022-08-10T02:56:48.018Z,0.00
2022-08-10T02:58:16.720Z,0.00
2022-08-10T02:58:47.955Z,0.00
2022-08-10T02:59:47.908Z,0.00
2022-08-10T03:00:47.944Z,0.00
2022-08-10T03:01:47.836Z,0.00
2022-08-10T03:02:47.796Z,0.00
2022-08-10T03:03:47.763Z,0.00
2022-08-10T03:04:56.097Z,0.00
2022-08-10T03:05:47.688Z,0.00
2022-08-10T03:06:47.645Z,0.00
2022-08-10T03:07:47.607Z,0.00
2022-08-10T03:08:47.572Z,0.00
2022-08-10T03:09:47.547Z,0.00
2022-08-10T03:10:47.580Z,0.00
2022-08-10T03:12:36.209Z,0.00
2022-08-10T03:12:47.604Z,0.00
2022-08-10T03:13:52.454Z,0.00
2022-08-10T03:14:47.348Z,0.00
2022-08-10T03:15:47.309Z,0.00
2022-08-10T03:16:47.288Z,0.00
2022-08-10T03:17:57.579Z,0.00
2022-08-10T03:18:47.196Z,0.00
2022-08-10T03:20:33.702Z,0.00
2022-08-10T03:20:47.121Z,0.00
2022-08-10T03:21:47.083Z,0.00
2022-08-10T03:22:47.058Z,0.00
2022-08-10T03:23:47.007Z,0.00
2022-08-10T03:24:46.984Z,0.00
2022-08-10T03:25:53.898Z,0.00
2022-08-10T03:26:46.894Z,0.00
2022-08-10T03:27:46.861Z,0.00
2022-08-10T03:28:46.856Z,0.00
2022-08-10T03:30:29.697Z,0.00
2022-08-10T03:30:46.744Z,0.00
2022-08-10T03:31:46.707Z,0.00
2022-08-10T03:32:46.680Z,0.00
2022-08-10T03:33:46.641Z,0.00
2022-08-10T03:34:46.594Z,0.00
2022-08-10T03:36:43.118Z,0.00
2022-08-10T03:36:46.517Z,0.00
2022-08-10T03:37:46.481Z,0.00
2022-08-10T03:38:46.444Z,0.00
2022-08-10T03:39:46.494Z,0.00
2022-08-10T03:40:46.820Z,0.00
2022-08-10T03:41:47.777Z,0.00
2022-08-10T03:42:46.289Z,0.00
2022-08-10T03:43:46.257Z,0.00
2022-08-10T03:44:50.252Z,0.00
2022-08-10T03:45:55.676Z,0.00
2022-08-10T03:46:46.139Z,0.00
2022-08-10T03:47:46.102Z,0.00
2022-08-10T03:48:49.608Z,0.00
2022-08-10T03:49:46.027Z,0.00
2022-08-10T03:50:51.903Z,0.00
2022-08-10T03:51:45.959Z,0.00
2022-08-10T03:52:45.912Z,0.00
2022-08-10T03:54:04.974Z,0.00
2022-08-10T03:54:45.837Z,0.00
2022-08-10T03:56:29.414Z,0.00
2022-08-10T03:56:45.771Z,0.00
2022-08-10T03:57:49.579Z,0.00
2022-08-10T03:58:45.683Z,5.63
2022-08-10T03:59:45.651Z,5.63
2022-08-10T04:00:45.626Z,5.63
2022-08-10T04:02:45.312Z,5.63
2022-08-10T04:02:48.385Z,5.63
2022-08-10T04:03:45.497Z,5.63
2022-08-10T04:04:45.457Z,5.63
2022-08-10T04:05:45.420Z,5.63
2022-08-10T04:06:45.396Z,11.25
2022-08-10T04:07:45.345Z,11.25
2022-08-10T04:08:45.306Z,11.25
2022-08-10T04:09:55.731Z,11.25
2022-08-10T04:10:45.230Z,16.88
2022-08-10T04:11:45.191Z,16.88
2022-08-10T04:12:45.163Z,16.88
2022-08-10T04:13:45.115Z,16.88
2022-08-10T04:14:49.329Z,22.50
2022-08-10T04:15:45.040Z,22.50
2022-08-10T04:16:44.999Z,22.50
2022-08-10T04:17:57.081Z,28.13
2022-08-10T04:18:44.940Z,28.13
2022-08-10T04:19:44.892Z,28.13
2022-08-10T04:20:44.854Z,33.75
2022-08-10T04:21:44.811Z,33.75
2022-08-10T04:22:44.798Z,39.38
2022-08-10T04:23:44.734Z,39.38
2022-08-10T04:24:44.706Z,39.38
2022-08-10T04:25:44.658Z,45.00
2022-08-10T04:26:44.621Z,45.00
2022-08-10T04:27:44.585Z,50.63
2022-08-10T04:28:44.545Z,50.63
2022-08-10T04:29:44.507Z,56.25
2022-08-10T04:30:44.483Z,56.25
2022-08-10T04:31:44.434Z,61.88
2022-08-10T04:32:44.392Z,67.50
2022-08-10T04:33:44.356Z,67.50
2022-08-10T04:34:44.324Z,73.13
2022-08-10T04:35:44.278Z,73.13
2022-08-10T04:36:44.250Z,78.75
2022-08-10T04:37:47.615Z,84.38
2022-08-10T04:38:44.177Z,84.38
2022-08-10T04:39:44.211Z,90.00
2022-08-10T04:40:44.089Z,95.63
2022-08-10T04:41:47.302Z,101.25
2022-08-10T04:42:44.012Z,101.25
2022-08-10T04:43:44.004Z,106.88
2022-08-10T04:44:43.940Z,112.50
2022-08-10T04:45:49.518Z,112.50
2022-08-10T04:46:57.895Z,118.13
2022-08-10T04:48:00.636Z,118.13
2022-08-10T04:49:01.249Z,123.75
2022-08-10T04:49:55.135Z,123.75
2022-08-10T04:50:43.709Z,129.38
2022-08-10T04:51:43.671Z,129.38
2022-08-10T04:52:43.636Z,129.38
2022-08-10T04:54:05.494Z,135.00
2022-08-10T04:54:43.559Z,135.00
2022-08-10T04:55:43.535Z,140.63
2022-08-10T04:56:43.492Z,140.63
2022-08-10T04:57:43.444Z,140.63
2022-08-10T04:58:43.407Z,140.63
2022-08-10T04:59:43.370Z,146.25
2022-08-10T05:00:43.395Z,146.25
2022-08-10T05:02:22.170Z,146.25
2022-08-10T05:02:43.405Z,151.88
2022-08-10T05:04:34.659Z,151.88
2022-08-10T05:04:43.192Z,151.88
2022-08-10T05:05:43.141Z,151.88
2022-08-10T05:06:43.104Z,151.88
2022-08-10T05:07:51.463Z,157.50
2022-08-10T05:08:43.039Z,151.88
2022-08-10T05:10:04.835Z,168.75
2022-08-10T05:10:42.953Z,213.75
2022-08-10T05:11:42.915Z,253.13
2022-08-10T05:12:42.878Z,275.63
2022-08-10T05:13:42.851Z,281.25
2022-08-10T05:14:42.802Z,292.50
2022-08-10T05:15:42.766Z,303.75
2022-08-10T05:16:42.732Z,309.38
2022-08-10T05:18:03.237Z,303.75
2022-08-10T05:18:42.655Z,320.63
2022-08-10T05:20:04.361Z,354.38
2022-08-10T05:20:42.590Z,388.13
2022-08-10T05:22:03.396Z,393.75
2022-08-10T05:22:42.505Z,343.13
2022-08-10T05:23:42.469Z,337.50
2022-08-10T05:24:42.438Z,354.38
2022-08-10T05:25:42.403Z,376.88
2022-08-10T05:27:00.466Z,399.38
2022-08-10T05:27:42.334Z,388.13
2022-08-10T05:28:42.288Z,348.75
2022-08-10T05:29:42.250Z,326.25
2022-08-10T05:30:42.216Z,326.25
2022-08-10T05:31:42.181Z,337.50
2022-08-10T05:32:58.176Z,331.88
2022-08-10T05:33:42.273Z,343.13
2022-08-10T05:34:42.071Z,371.25
2022-08-10T05:35:56.235Z,393.75
2022-08-10T05:36:42.003Z,405.00
2022-08-10T05:38:09.951Z,450.00
2022-08-10T05:38:41.930Z,438.75
2022-08-10T05:39:41.961Z,461.25
2022-08-10T05:40:46.101Z,489.38
2022-08-10T05:41:46.049Z,506.25
2022-08-10T05:42:41.796Z,534.38
2022-08-10T05:43:41.753Z,528.75
2022-08-10T05:44:41.719Z,528.75
2022-08-10T05:46:19.210Z,545.63
2022-08-10T05:46:41.663Z,545.63
2022-08-10T05:48:57.047Z,540.00
2022-08-10T05:48:57.176Z,551.25
2022-08-10T05:49:41.547Z,551.25
2022-08-10T05:50:41.514Z,562.50
2022-08-10T05:51:41.489Z,568.13
2022-08-10T05:52:41.443Z,573.75
2022-08-10T05:54:02.336Z,585.00
2022-08-10T05:54:41.376Z,596.25
2022-08-10T05:55:41.344Z,601.88
2022-08-10T05:56:56.746Z,596.25
2022-08-10T05:57:41.282Z,506.25
2022-08-10T05:58:41.255Z,545.63
2022-08-10T06:00:12.613Z,579.38
2022-08-10T06:00:49.717Z,596.25
2022-08-10T06:01:41.232Z,551.25
2022-08-10T06:02:41.441Z,540.00
2022-08-10T06:03:41.071Z,540.00
2022-08-10T06:04:41.039Z,573.75
2022-08-10T06:05:41.006Z,585.00
2022-08-10T06:06:40.974Z,601.88
2022-08-10T06:07:40.988Z,635.63
2022-08-10T06:08:40.905Z,646.88
2022-08-10T06:09:58.943Z,624.38
2022-08-10T06:10:50.858Z,601.88
2022-08-10T06:12:26.488Z,652.50
2022-08-10T06:12:54.036Z,630.00
2022-08-10T06:14:13.186Z,630.00
2022-08-10T06:14:40.709Z,630.00
2022-08-10T06:15:50.855Z,646.88
2022-08-10T06:16:40.640Z,675.00
2022-08-10T06:17:40.611Z,675.00
2022-08-10T06:18:40.586Z,714.38
2022-08-10T06:19:40.539Z,731.25
2022-08-10T06:20:40.507Z,736.88
2022-08-10T06:21:40.474Z,725.63
2022-08-10T06:22:40.464Z,742.50
2022-08-10T06:23:40.410Z,720.00
2022-08-10T06:24:51.165Z,714.38
2022-08-10T06:26:09.821Z,748.13
2022-08-10T06:26:40.310Z,776.25
2022-08-10T06:27:40.280Z,765.00
2022-08-10T06:28:40.257Z,781.88
2022-08-10T06:29:40.208Z,781.88
2022-08-10T06:30:40.186Z,776.25
2022-08-10T06:31:49.008Z,793.13
2022-08-10T06:32:40.116Z,804.38
2022-08-10T06:33:40.085Z,810.00
2022-08-10T06:34:40.063Z,838.13
2022-08-10T06:35:40.025Z,832.50
2022-08-10T06:36:39.984Z,843.75
2022-08-10T06:37:39.951Z,849.38
2022-08-10T06:38:39.919Z,849.38
2022-08-10T06:39:39.958Z,866.25
2022-08-10T06:40:39.869Z,877.50
2022-08-10T06:42:14.377Z,911.25
2022-08-10T06:42:39.789Z,916.88
2022-08-10T06:43:39.756Z,871.88
2022-08-10T06:44:39.728Z,945.00
2022-08-10T06:45:39.690Z,978.75
2022-08-10T06:46:40.823Z,1057.50
2022-08-10T06:47:39.626Z,1108.13
2022-08-10T06:48:39.604Z,1153.13
2022-08-10T06:49:39.561Z,1181.25
2022-08-10T06:50:56.193Z,1248.75
2022-08-10T06:51:39.497Z,1310.63
2022-08-10T06:52:39.470Z,1378.13
2022-08-10T06:53:53.913Z,1462.50
2022-08-10T06:54:39.404Z,1659.38
2022-08-10T06:55:49.722Z,1687.50
2022-08-10T06:56:46.867Z,1653.75
2022-08-10T06:57:39.306Z,1620.00
2022-08-10T06:58:39.296Z,1541.25
2022-08-10T06:59:39.244Z,1423.13
2022-08-10T07:00:39.281Z,1411.88
2022-08-10T07:01:39.178Z,1434.38
2022-08-10T07:02:39.148Z,1440.00
2022-08-10T07:03:39.118Z,1417.50
2022-08-10T07:04:39.095Z,1361.25
2022-08-10T07:05:39.054Z,1299.38
2022-08-10T07:06:39.023Z,1305.00
2022-08-10T07:07:38.985Z,1276.88
2022-08-10T07:08:38.955Z,1192.50
2022-08-10T07:09:38.932Z,1040.63
2022-08-10T07:10:45.652Z,1096.88
2022-08-10T07:11:38.860Z,1040.63
2022-08-10T07:12:38.827Z,1074.38
2022-08-10T07:14:16.287Z,1035.00
2022-08-10T07:14:38.771Z,973.13
2022-08-10T07:15:59.819Z,945.00
2022-08-10T07:16:38.706Z,950.63
2022-08-10T07:17:39.670Z,939.38
2022-08-10T07:18:38.641Z,933.75
2022-08-10T07:19:50.400Z,956.25
2022-08-10T07:20:38.590Z,1057.50
2022-08-10T07:21:38.564Z,1085.63
2022-08-10T07:23:01.204Z,1125.00
2022-08-10T07:23:57.603Z,1113.75
2022-08-10T07:24:38.450Z,1029.38
2022-08-10T07:25:38.417Z,933.75
2022-08-10T07:26:38.400Z,939.38
2022-08-10T07:27:39.249Z,939.38
2022-08-10T07:28:38.327Z,905.63
2022-08-10T07:29:53.211Z,933.75
2022-08-10T07:30:38.265Z,1029.38
2022-08-10T07:31:57.071Z,1040.63
2022-08-10T07:32:38.213Z,1051.88
2022-08-10T07:33:38.170Z,1023.75
2022-08-10T07:34:38.141Z,1006.88
2022-08-10T07:35:42.236Z,967.50
2022-08-10T07:36:38.078Z,990.00
2022-08-10T07:37:38.044Z,973.13
2022-08-10T07:38:38.027Z,1040.63
2022-08-10T07:40:02.429Z,1119.38
2022-08-10T07:40:37.999Z,1147.50
2022-08-10T07:41:37.921Z,1153.13
2022-08-10T07:42:42.088Z,1153.13
2022-08-10T07:43:37.884Z,1147.50
2022-08-10T07:44:37.833Z,1147.50
2022-08-10T07:45:37.802Z,1147.50
2022-08-10T07:46:37.771Z,1158.75
2022-08-10T07:47:46.356Z,1153.13
2022-08-10T07:48:37.725Z,1158.75
2022-08-10T07:49:37.677Z,1164.38
2022-08-10T07:50:37.655Z,1153.13
2022-08-10T07:51:37.619Z,1153.13
2022-08-10T07:52:37.777Z,1181.25
2022-08-10T07:53:37.561Z,1170.00
2022-08-10T07:54:37.544Z,1181.25
2022-08-10T07:56:04.548Z,1215.00
2022-08-10T07:56:48.879Z,1231.88
2022-08-10T07:57:40.244Z,1243.13
2022-08-10T07:58:37.413Z,1226.25
2022-08-10T07:59:37.391Z,1220.63
2022-08-10T08:00:37.366Z,1254.38
2022-08-10T08:01:37.389Z,1158.75
2022-08-10T08:02:37.379Z,1215.00
2022-08-10T08:03:37.261Z,1248.75
2022-08-10T08:04:37.252Z,1209.38
2022-08-10T08:06:02.947Z,1260.00
2022-08-10T08:06:37.180Z,1215.00
2022-08-10T08:07:37.154Z,1164.38
2022-08-10T08:08:37.116Z,1215.00
2022-08-10T08:09:37.102Z,1158.75
2022-08-10T08:10:37.056Z,1192.50
2022-08-10T08:11:37.028Z,1209.38
2022-08-10T08:12:37.327Z,1231.88
2022-08-10T08:13:36.981Z,1209.38
2022-08-10T08:14:36.939Z,1276.88
2022-08-10T08:16:18.596Z,1389.38
2022-08-10T08:16:36.887Z,1445.63
2022-08-10T08:17:36.854Z,1485.00
2022-08-10T08:18:37.193Z,1501.88
2022-08-10T08:19:40.949Z,1530.00
2022-08-10T08:20:36.765Z,1546.88
2022-08-10T08:24:04.585Z,1597.50
2022-08-10T08:24:04.729Z,1563.75
2022-08-10T08:24:07.807Z,1608.75
2022-08-10T08:24:37.165Z,1653.75
2022-08-10T08:25:36.620Z,1580.63
2022-08-10T08:26:36.596Z,1524.38
2022-08-10T08:27:38.340Z,1687.50
2022-08-10T08:28:36.618Z,1777.50
2022-08-10T08:29:37.345Z,1833.75
2022-08-10T08:30:36.504Z,1873.13
2022-08-10T08:31:36.458Z,1906.88
2022-08-10T08:32:36.724Z,1951.88
2022-08-10T08:33:41.927Z,1991.25
2022-08-10T08:34:37.631Z,2025.00
2022-08-10T08:35:38.066Z,2086.88
2022-08-10T08:36:37.333Z,2115.00
2022-08-10T08:38:31.389Z,2165.63
2022-08-10T08:38:36.792Z,2227.50
2022-08-10T08:39:37.077Z,2278.13
2022-08-10T08:40:36.243Z,2351.25
2022-08-10T08:41:36.200Z,2401.88
2022-08-10T08:42:36.302Z,2458.13
2022-08-10T08:43:36.113Z,2548.13
2022-08-10T08:44:36.095Z,2621.25
2022-08-10T08:45:36.060Z,2694.38
2022-08-10T08:46:36.040Z,2761.88
2022-08-10T08:48:04.504Z,2818.13
2022-08-10T08:48:35.978Z,2846.25
2022-08-10T08:50:08.837Z,2885.63
2022-08-10T08:50:35.922Z,2936.25
2022-08-10T08:52:07.330Z,3003.75
2022-08-10T08:52:36.185Z,3082.50
2022-08-10T08:54:01.206Z,3110.63
2022-08-10T08:54:35.852Z,3116.25
2022-08-10T08:56:03.497Z,3195.00
2022-08-10T08:56:35.802Z,3245.63
2022-08-10T08:57:50.464Z,3268.13
2022-08-10T08:58:35.798Z,3296.25
2022-08-10T08:59:35.690Z,3318.75
2022-08-10T09:00:35.651Z,3346.88
2022-08-10T09:01:38.050Z,3358.13
2022-08-10T09:02:35.780Z,3346.88
2022-08-10T09:03:35.569Z,3403.13
2022-08-10T09:04:35.543Z,3465.00
2022-08-10T09:06:00.214Z,3560.63
2022-08-10T09:06:35.497Z,3611.25
2022-08-10T09:07:59.582Z,3605.63
2022-08-10T09:08:35.436Z,3616.88
2022-08-10T09:09:35.405Z,3645.00
2022-08-10T09:10:37.570Z,3633.75
2022-08-10T09:11:35.362Z,3639.38
2022-08-10T09:12:35.610Z,3678.75
2022-08-10T09:13:35.301Z,3690.00
2022-08-10T09:14:35.278Z,3729.38
2022-08-10T09:15:39.981Z,3763.13
2022-08-10T09:16:35.239Z,3768.75
2022-08-10T09:17:35.197Z,3808.13
2022-08-10T09:18:35.173Z,3819.38
2022-08-10T09:19:36.877Z,3796.88
2022-08-10T09:20:35.121Z,3763.13
2022-08-10T09:21:35.095Z,3825.00
2022-08-10T09:22:35.184Z,3841.88
2022-08-10T09:24:01.665Z,3808.13
2022-08-10T09:24:35.017Z,3830.63
2022-08-10T09:25:34.988Z,3881.25
2022-08-10T09:26:34.965Z,3937.50
2022-08-10T09:27:35.438Z,3920.63
2022-08-10T09:28:34.921Z,3915.00
2022-08-10T09:29:34.885Z,3903.75
2022-08-10T09:30:38.448Z,3915.00
2022-08-10T09:31:38.648Z,3965.63
2022-08-10T09:36:14.870Z,3948.75
2022-08-10T09:36:19.794Z,3903.75
2022-08-10T09:36:25.994Z,4016.25
2022-08-10T09:36:29.225Z,3943.13
2022-08-10T09:36:35.422Z,4027.50
2022-08-10T09:37:39.990Z,3993.75
2022-08-10T09:38:34.652Z,3960.00
2022-08-10T09:40:12.685Z,3982.50
2022-08-10T09:41:00.074Z,4050.00
2022-08-10T09:41:34.612Z,4123.13
2022-08-10T09:42:34.748Z,4100.63
2022-08-10T09:43:34.523Z,4044.38
2022-08-10T09:44:34.496Z,4100.63
2022-08-10T09:45:34.484Z,4100.63
2022-08-10T09:46:34.450Z,4010.63
2022-08-10T09:47:58.602Z,4072.50
2022-08-10T09:48:34.391Z,4179.38
2022-08-10T09:49:53.760Z,4173.75
2022-08-10T09:51:16.027Z,4123.13
2022-08-10T09:51:45.326Z,4100.63
2022-08-10T09:52:34.288Z,4072.50
2022-08-10T09:53:34.489Z,4044.38
2022-08-10T09:54:34.236Z,4156.88
2022-08-10T09:56:18.015Z,4179.38
2022-08-10T09:56:34.190Z,4218.75
2022-08-10T09:57:44.906Z,4196.25
2022-08-10T09:58:34.126Z,4128.75
2022-08-10T10:00:00.077Z,4168.13
2022-08-10T10:00:34.073Z,4140.00
2022-08-10T10:02:03.177Z,4111.88
2022-08-10T10:02:34.020Z,4173.75
2022-08-10T10:03:34.026Z,4128.75
2022-08-10T10:04:33.969Z,4089.38
2022-08-10T10:05:34.062Z,4021.88
2022-08-10T10:06:33.915Z,3881.25
2022-08-10T10:07:33.917Z,3920.63
2022-08-10T10:08:33.865Z,1153.13
2022-08-10T10:09:33.837Z,1141.88
2022-08-10T10:10:33.811Z,3931.88
2022-08-10T10:11:33.802Z,3881.25
2022-08-10T10:12:33.758Z,3999.38
2022-08-10T10:14:01.791Z,4016.25
2022-08-10T10:14:33.706Z,1856.25
2022-08-10T10:15:33.680Z,3830.63
2022-08-10T10:16:33.656Z,3875.63
2022-08-10T10:17:33.630Z,3847.50
2022-08-10T10:18:33.600Z,3858.75
2022-08-10T10:19:36.171Z,3886.88
2022-08-10T10:20:33.548Z,3892.50
2022-08-10T10:21:53.948Z,3954.38
2022-08-10T10:22:33.495Z,3982.50
2022-08-10T10:23:33.479Z,4055.63
2022-08-10T10:24:33.440Z,4089.38
2022-08-10T10:25:51.245Z,3999.38
2022-08-10T10:26:33.388Z,4010.63
2022-08-10T10:27:33.414Z,4027.50
2022-08-10T10:29:06.932Z,3999.38
2022-08-10T10:29:57.264Z,4033.13
2022-08-10T10:30:33.296Z,4038.75
2022-08-10T10:31:33.270Z,3448.13
2022-08-10T10:32:36.870Z,4190.63
2022-08-10T10:33:33.205Z,3605.63
2022-08-10T10:34:33.182Z,3667.50
2022-08-10T10:35:33.150Z,2480.63
2022-08-10T10:36:33.162Z,3982.50
2022-08-10T10:38:01.276Z,3892.50
2022-08-10T10:38:33.073Z,3915.00
2022-08-10T10:39:33.082Z,3943.13
2022-08-10T10:40:33.020Z,3988.13
2022-08-10T10:41:55.843Z,3937.50
2022-08-10T10:42:46.109Z,3903.75
2022-08-10T10:43:32.942Z,3881.25
2022-08-10T10:44:32.914Z,3886.88
2022-08-10T10:45:32.888Z,3971.25
2022-08-10T10:46:32.864Z,3999.38
2022-08-10T10:47:32.943Z,3993.75
2022-08-10T10:48:32.810Z,3937.50
2022-08-10T10:49:32.784Z,3982.50
2022-08-10T10:50:32.759Z,3965.63
2022-08-10T10:51:32.735Z,3903.75
2022-08-10T10:52:32.720Z,3875.63
2022-08-10T10:53:32.685Z,3791.25
2022-08-10T10:54:32.655Z,3763.13
2022-08-10T10:55:32.629Z,3757.50
2022-08-10T10:56:32.605Z,3763.13
2022-08-10T10:57:59.026Z,3768.75
2022-08-10T10:58:32.572Z,3819.38
2022-08-10T10:59:55.693Z,3785.63
2022-08-10T11:00:32.505Z,3808.13
2022-08-10T11:01:32.521Z,3785.63
2022-08-10T11:02:32.459Z,3768.75
2022-08-10T11:03:32.426Z,3785.63
2022-08-10T11:04:32.397Z,3723.75
2022-08-10T11:05:32.369Z,3667.50
2022-08-10T11:06:40.112Z,3206.25
2022-08-10T11:07:33.900Z,3701.25
2022-08-10T11:08:32.301Z,3723.75
2022-08-10T11:10:05.077Z,3616.88
2022-08-10T11:10:34.650Z,3549.38
2022-08-10T11:12:01.737Z,3684.38
2022-08-10T11:12:32.258Z,3605.63
2022-08-10T11:14:26.769Z,3729.38
2022-08-10T11:14:32.156Z,3768.75
2022-08-10T11:15:32.107Z,3701.25
2022-08-10T11:16:32.076Z,3161.25
2022-08-10T11:17:32.054Z,2885.63
2022-08-10T11:18:32.023Z,3223.13
2022-08-10T11:20:01.842Z,3678.75
2022-08-10T11:20:31.981Z,3594.38
2022-08-10T11:21:31.942Z,3695.63
2022-08-10T11:22:36.750Z,2272.50
2022-08-10T11:23:31.890Z,3751.88
2022-08-10T11:24:47.665Z,3836.25
2022-08-10T11:25:31.845Z,3673.13
2022-08-10T11:26:31.817Z,3813.75
2022-08-10T11:27:31.907Z,3442.50
2022-08-10T11:28:34.116Z,3735.00
2022-08-10T11:29:31.729Z,3661.88
2022-08-10T11:30:31.716Z,2823.75
2022-08-10T11:31:31.675Z,3746.25
2022-08-10T11:32:31.646Z,3605.63
2022-08-10T11:33:32.907Z,3667.50
2022-08-10T11:34:48.422Z,3875.63
2022-08-10T11:35:34.826Z,3285.00
2022-08-10T11:36:31.551Z,3825.00
2022-08-10T11:38:34.264Z,3881.25
2022-08-10T11:38:42.877Z,3886.88
2022-08-10T11:39:31.512Z,3813.75
2022-08-10T11:40:31.430Z,3751.88
2022-08-10T11:42:09.551Z,3763.13
2022-08-10T11:42:35.778Z,3847.50
2022-08-10T11:43:31.355Z,3875.63
2022-08-10T11:44:31.323Z,3864.38
2022-08-10T11:45:31.298Z,3909.38
2022-08-10T11:46:31.270Z,3898.13
2022-08-10T11:47:31.258Z,3915.00
2022-08-10T11:48:53.356Z,3808.13
2022-08-10T11:49:31.193Z,3875.63
2022-08-10T11:50:31.165Z,3853.13
2022-08-10T11:51:31.141Z,3695.63
2022-08-10T11:52:31.110Z,3802.50
2022-08-10T11:53:39.115Z,3785.63
2022-08-10T11:54:31.079Z,3746.25
2022-08-10T11:55:31.032Z,3622.50
2022-08-10T11:56:31.046Z,3510.00
2022-08-10T11:57:53.788Z,3656.25
2022-08-10T11:58:30.951Z,3639.38
2022-08-10T11:59:30.946Z,3639.38
2022-08-10T12:00:32.693Z,3678.75
2022-08-10T12:01:30.874Z,3650.63
2022-08-10T12:02:30.929Z,3678.75
2022-08-10T12:03:34.565Z,3673.13
2022-08-10T12:04:30.794Z,2722.50
2022-08-10T12:05:51.936Z,3195.00
2022-08-10T12:06:54.253Z,3363.75
2022-08-10T12:10:05.835Z,1468.13
2022-08-10T12:10:06.685Z,1721.25
2022-08-10T12:10:09.981Z,2193.75
2022-08-10T12:10:30.651Z,1366.88
2022-08-10T12:11:30.613Z,2626.88
2022-08-10T12:12:30.586Z,3521.25
2022-08-10T12:13:30.561Z,3605.63
2022-08-10T12:14:30.548Z,3616.88
2022-08-10T12:15:30.521Z,3633.75
2022-08-10T12:16:30.538Z,3667.50
2022-08-10T12:17:30.457Z,3667.50
2022-08-10T12:18:30.429Z,3678.75
2022-08-10T12:19:30.404Z,3746.25
2022-08-10T12:20:30.378Z,3785.63
2022-08-10T12:21:30.363Z,3796.88
2022-08-10T12:22:30.331Z,3768.75
2022-08-10T12:23:30.353Z,3712.50
2022-08-10T12:24:30.271Z,3678.75
2022-08-10T12:25:56.110Z,3650.63
2022-08-10T12:26:30.217Z,3594.38
2022-08-10T12:27:30.194Z,3628.13
2022-08-10T12:28:50.671Z,3639.38
2022-08-10T12:29:30.145Z,3571.88
2022-08-10T12:30:30.128Z,3566.25
2022-08-10T12:31:30.088Z,3532.50
2022-08-10T12:32:30.061Z,3498.75
2022-08-10T12:33:30.059Z,3448.13
2022-08-10T12:34:30.009Z,3481.88